Time;durP1;ratioP1;P1;durP2;ratioP2;P2;SDS_P1;SDS_P2;PMS_P1;PMS_P2;Temp;Humidity;BMP_temperature;BMP_pressure;BME280_temperature;BME280_humidity;BME280_pressure;Samples;Min_cycle;Max_cycle;Signal;HPM_P1;HPM_P2
2023/09/29 00:00:18;;;;;;;17.08;6.13;;;;;;;17.69;100.00;101445.09;5063918;28;20127;-65
2023/09/29 00:03:08;;;;;;;15.23;5.22;;;;;;;17.68;100.00;101449.81;5060756;28;20048;-64
2023/09/29 00:05:57;;;;;;;16.88;5.80;;;;;;;17.72;100.00;101438.19;5059550;28;20515;-64
2023/09/29 00:08:45;;;;;;;12.88;5.57;;;;;;;17.71;100.00;101440.13;5072538;28;20105;-64
2023/09/29 00:11:34;;;;;;;14.45;5.40;;;;;;;17.70;100.00;101435.72;5071565;28;20156;-65
2023/09/29 00:14:22;;;;;;;14.43;5.30;;;;;;;17.71;100.00;101437.34;5073553;28;20090;-63
2023/09/29 00:17:10;;;;;;;15.68;5.30;;;;;;;17.71;100.00;101434.59;5079154;28;20067;-63
2023/09/29 00:19:59;;;;;;;15.25;5.78;;;;;;;17.72;100.00;101433.47;5071195;28;20045;-64
2023/09/29 00:22:47;;;;;;;16.70;5.30;;;;;;;17.73;100.00;101437.88;5058257;28;20132;-64
2023/09/29 00:25:35;;;;;;;14.63;6.07;;;;;;;17.73;100.00;101432.38;5043896;28;20040;-64
2023/09/29 00:28:23;;;;;;;16.73;5.68;;;;;;;17.72;100.00;101433.47;5079503;28;20032;-64
2023/09/29 00:31:11;;;;;;;13.07;5.32;;;;;;;17.69;100.00;101436.84;5059288;28;20048;-63
2023/09/29 00:33:59;;;;;;;19.60;5.60;;;;;;;17.66;100.00;101431.94;5071310;28;20044;-64
2023/09/29 00:36:47;;;;;;;16.70;6.13;;;;;;;17.64;100.00;101428.66;5072487;28;20044;-64
2023/09/29 00:39:35;;;;;;;16.23;5.50;;;;;;;17.61;100.00;101432.84;5044113;28;20121;-64
2023/09/29 00:42:23;;;;;;;15.70;5.68;;;;;;;17.60;100.00;101424.84;5075196;28;20500;-65
2023/09/29 00:45:12;;;;;;;14.13;5.47;;;;;;;17.61;100.00;101430.09;5070407;28;20170;-65
2023/09/29 00:48:07;;;;;;;12.05;5.32;;;;;;;17.61;100.00;101424.56;5057343;28;20044;-64
2023/09/29 00:50:55;;;;;;;16.07;5.57;;;;;;;17.60;100.00;101422.91;5057400;28;20052;-63
2023/09/29 00:53:43;;;;;;;15.73;5.60;;;;;;;17.61;100.00;101423.75;5039111;28;20126;-65
2023/09/29 00:56:31;;;;;;;14.80;5.53;;;;;;;17.59;100.00;101415.78;5074325;28;20412;-63
2023/09/29 00:59:19;;;;;;;17.33;5.63;;;;;;;17.59;100.00;101415.78;5063356;28;20048;-64
2023/09/29 01:02:10;;;;;;;15.18;5.63;;;;;;;17.57;100.00;101418.00;5033990;28;20186;-65
2023/09/29 01:04:58;;;;;;;13.45;4.97;;;;;;;17.55;100.00;101419.44;5056659;28;20047;-63
2023/09/29 01:07:47;;;;;;;16.10;5.32;;;;;;;17.57;100.00;101411.69;5062923;28;20056;-63
2023/09/29 01:10:36;;;;;;;14.48;5.40;;;;;;;17.56;100.00;101421.09;5056654;28;20511;-64
2023/09/29 01:13:24;;;;;;;12.68;5.00;;;;;;;17.57;100.00;101418.00;5037695;28;20045;-63
2023/09/29 01:16:13;;;;;;;15.93;5.47;;;;;;;17.58;100.00;101419.66;5050524;28;20048;-64
2023/09/29 01:19:01;;;;;;;15.65;5.18;;;;;;;17.57;100.00;101408.94;5043898;28;20101;-64
2023/09/29 01:21:51;;;;;;;12.77;4.82;;;;;;;17.53;100.00;101407.88;5044097;28;20082;-64
2023/09/29 01:24:39;;;;;;;12.45;5.07;;;;;;;17.52;100.00;101404.31;5057586;28;20144;-63
2023/09/29 01:27:27;;;;;;;13.73;5.25;;;;;;;17.50;100.00;101401.06;5043533;28;20041;-63
2023/09/29 01:30:18;;;;;;;16.52;5.13;;;;;;;17.50;100.00;101400.22;5055504;28;20113;-64
2023/09/29 01:33:07;;;;;;;10.35;4.90;;;;;;;17.49;100.00;101395.84;5043836;28;20416;-62
2023/09/29 01:35:55;;;;;;;14.00;5.43;;;;;;;17.48;100.00;101384.00;5071522;28;20048;-63
2023/09/29 01:38:45;;;;;;;14.65;5.03;;;;;;;17.48;100.00;101375.72;5073054;28;20079;-63
2023/09/29 01:41:33;;;;;;;11.65;4.85;;;;;;;17.52;100.00;101365.75;5024076;28;20056;-64
2023/09/29 01:44:21;;;;;;;12.45;5.18;;;;;;;17.57;100.00;101362.09;5053501;28;20056;-64
2023/09/29 01:47:09;;;;;;;10.85;4.72;;;;;;;17.59;100.00;101366.19;5037094;28;20064;-64
2023/09/29 01:49:57;;;;;;;11.00;4.90;;;;;;;17.61;100.00;101363.13;5061921;28;20618;-64
2023/09/29 01:52:46;;;;;;;10.55;4.78;;;;;;;17.59;100.00;101376.38;5090120;28;20048;-64
2023/09/29 01:55:34;;;;;;;14.00;5.00;;;;;;;17.56;100.00;101365.97;5043405;28;20075;-64
2023/09/29 01:58:23;;;;;;;12.15;4.82;;;;;;;17.55;100.00;101358.81;5037205;28;20413;-64
2023/09/29 02:01:12;;;;;;;12.38;4.72;;;;;;;17.52;100.00;101357.47;5040519;28;20053;-64
2023/09/29 02:04:01;;;;;;;12.15;4.50;;;;;;;17.48;100.00;101342.66;5061659;28;20392;-63
2023/09/29 02:06:50;;;;;;;12.00;4.40;;;;;;;17.46;100.00;101344.91;5061183;28;20127;-66
2023/09/29 02:09:38;;;;;;;11.65;4.30;;;;;;;17.46;100.00;101345.75;5078464;28;20082;-64
2023/09/29 02:12:26;;;;;;;10.88;4.53;;;;;;;17.48;100.00;101345.41;5081056;28;20054;-64
2023/09/29 02:15:18;;;;;;;9.57;4.20;;;;;;;17.50;100.00;101350.66;5051829;28;20041;-64
2023/09/29 02:18:07;;;;;;;9.63;4.57;;;;;;;17.51;100.00;101341.25;5045847;28;20056;-64
2023/09/29 02:20:55;;;;;;;10.52;4.40;;;;;;;17.49;100.00;101338.00;5074488;28;20074;-64
2023/09/29 02:23:45;;;;;;;10.80;4.10;;;;;;;17.48;100.00;101334.41;5075131;28;20049;-64
2023/09/29 02:26:34;;;;;;;8.43;3.90;;;;;;;17.48;100.00;101341.84;5046119;28;20099;-65
2023/09/29 02:29:22;;;;;;;8.68;3.95;;;;;;;17.49;100.00;101340.75;5060380;28;20504;-65
2023/09/29 02:32:11;;;;;;;9.23;4.10;;;;;;;17.50;100.00;101336.88;5044969;28;20041;-64
2023/09/29 02:34:59;;;;;;;11.15;3.90;;;;;;;17.48;100.00;101345.41;5074734;28;20037;-64
2023/09/29 02:37:48;;;;;;;8.52;4.00;;;;;;;17.46;100.00;101334.72;5059505;28;20044;-64
2023/09/29 02:40:36;;;;;;;10.07;3.80;;;;;;;17.46;100.00;101333.88;5060552;28;20040;-64
2023/09/29 02:43:24;;;;;;;8.98;3.55;;;;;;;17.44;100.00;101338.91;5077373;28;20043;-66
2023/09/29 02:46:15;;;;;;;10.10;3.75;;;;;;;17.45;100.00;101330.31;5073581;28;20170;-63
2023/09/29 02:49:03;;;;;;;9.50;4.10;;;;;;;17.47;100.00;101324.50;5060782;28;20036;-64
2023/09/29 02:51:52;;;;;;;9.98;4.25;;;;;;;17.49;100.00;101321.47;5075644;28;20045;-63
2023/09/29 02:54:40;;;;;;;10.50;3.97;;;;;;;17.48;100.00;101317.06;5054664;28;20127;-64
2023/09/29 02:57:29;;;;;;;8.35;3.70;;;;;;;17.46;100.00;101309.94;5055776;28;20087;-64
2023/09/29 03:00:26;;;;;;;7.70;3.63;;;;;;;17.45;100.00;101302.78;5075368;28;20040;-64
2023/09/29 03:03:15;;;;;;;8.15;3.63;;;;;;;17.46;100.00;101301.66;5059348;28;20049;-64
2023/09/29 03:06:07;;;;;;;10.05;3.58;;;;;;;17.48;100.00;101295.03;5042751;28;20041;-64
2023/09/29 03:08:58;;;;;;;8.18;3.50;;;;;;;17.50;100.00;101295.53;5054172;28;20159;-64
2023/09/29 03:11:46;;;;;;;9.60;3.70;;;;;;;17.49;100.00;101293.91;5052661;28;20505;-64
2023/09/29 03:14:34;;;;;;;7.80;3.38;;;;;;;17.51;100.00;101291.66;5054309;28;20056;-64
2023/09/29 03:17:22;;;;;;;9.70;4.03;;;;;;;17.52;100.00;101299.63;5047021;28;20120;-63
2023/09/29 03:20:12;;;;;;;8.30;3.53;;;;;;;17.53;100.00;101298.50;5056380;28;20162;-64
2023/09/29 03:23:04;;;;;;;14.77;3.70;;;;;;;17.55;100.00;101296.25;5059553;28;20052;-64
2023/09/29 03:25:53;;;;;;;9.48;3.90;;;;;;;17.57;100.00;101293.22;5046082;28;20405;-65
2023/09/29 03:28:41;;;;;;;7.53;3.42;;;;;;;17.56;100.00;101299.84;5059626;28;20053;-64
2023/09/29 03:31:29;;;;;;;8.65;3.78;;;;;;;17.56;100.00;101288.84;5080515;28;20493;-64
2023/09/29 03:34:19;;;;;;;8.88;3.72;;;;;;;17.55;100.00;101284.41;5045794;28;20044;-65
2023/09/29 03:37:07;;;;;;;8.10;3.55;;;;;;;17.55;100.00;101276.16;5063817;28;20115;-65
2023/09/29 03:39:55;;;;;;;8.13;3.65;;;;;;;17.56;100.00;101273.09;5072089;28;20122;-65
2023/09/29 03:42:43;;;;;;;11.23;3.65;;;;;;;17.57;100.00;101265.66;5073201;28;20055;-64
2023/09/29 03:45:31;;;;;;;10.98;3.67;;;;;;;17.57;100.00;101266.47;5039749;28;20389;-63
2023/09/29 03:48:20;;;;;;;8.10;3.85;;;;;;;17.59;100.00;101250.44;5041944;28;20048;-64
2023/09/29 03:51:08;;;;;;;8.40;3.80;;;;;;;17.59;100.00;101241.38;5059135;28;20175;-63
2023/09/29 03:53:57;;;;;;;7.72;3.35;;;;;;;17.59;100.00;101250.44;5076558;28;20185;-65
2023/09/29 03:56:45;;;;;;;8.57;3.67;;;;;;;17.59;100.00;101249.63;5076191;28;20048;-63
2023/09/29 03:59:34;;;;;;;7.30;3.30;;;;;;;17.59;100.00;101255.16;5073581;28;20523;-65
2023/09/29 04:02:22;;;;;;;7.75;3.30;;;;;;;17.60;100.00;101254.00;5058432;28;20412;-65
2023/09/29 04:05:10;;;;;;;7.88;3.15;;;;;;;17.61;100.00;101239.94;5037235;28;20052;-64
2023/09/29 04:07:58;;;;;;;7.38;3.28;;;;;;;17.63;100.00;101236.88;5052470;28;20056;-63
2023/09/29 04:10:46;;;;;;;6.93;3.20;;;;;;;17.63;100.00;101239.63;5050938;28;20037;-65
2023/09/29 04:13:35;;;;;;;7.57;3.42;;;;;;;17.63;100.00;101229.44;5070647;28;20048;-65
2023/09/29 04:16:22;;;;;;;7.72;3.20;;;;;;;17.65;100.00;101232.72;5070623;28;20052;-65
2023/09/29 04:19:12;;;;;;;6.63;3.20;;;;;;;17.66;100.00;101233.50;5042772;28;20055;-64
2023/09/29 04:22:00;;;;;;;6.47;2.92;;;;;;;17.68;100.00;101236.78;5064976;28;20129;-66
2023/09/29 04:24:48;;;;;;;7.13;3.58;;;;;;;17.66;100.00;101236.28;5073087;28;20182;-65
2023/09/29 04:27:38;;;;;;;5.90;3.30;;;;;;;17.66;100.00;101234.31;5072154;28;20059;-65
2023/09/29 04:30:26;;;;;;;8.30;3.10;;;;;;;17.67;100.00;101235.13;5057560;28;20045;-64
2023/09/29 04:33:14;;;;;;;8.07;3.45;;;;;;;17.67;100.00;101215.84;5057247;28;20049;-64
2023/09/29 04:36:02;;;;;;;8.57;3.40;;;;;;;17.68;100.00;101214.75;5071896;28;20591;-65
2023/09/29 04:38:51;;;;;;;6.30;3.10;;;;;;;17.68;100.00;101220.25;5036519;28;20056;-64
2023/09/29 04:41:39;;;;;;;9.48;3.53;;;;;;;17.69;100.00;101221.88;5046484;28;20485;-64
2023/09/29 04:44:27;;;;;;;8.82;3.33;;;;;;;17.68;100.00;101221.06;5072860;28;20048;-65
2023/09/29 04:47:15;;;;;;;6.80;3.40;;;;;;;17.68;100.00;101214.75;5069862;28;20515;-64
2023/09/29 04:50:05;;;;;;;6.85;2.95;;;;;;;17.68;100.00;101199.00;5045172;28;20097;-63
2023/09/29 04:52:53;;;;;;;8.85;3.63;;;;;;;17.68;100.00;101206.47;5075453;28;20496;-63
2023/09/29 04:55:41;;;;;;;8.52;3.88;;;;;;;17.67;100.00;101193.81;5056493;28;20054;-65
2023/09/29 04:58:29;;;;;;;8.55;3.70;;;;;;;17.68;100.00;101200.97;5052968;28;20076;-64
2023/09/29 05:01:18;;;;;;;6.90;3.72;;;;;;;17.68;100.00;101200.97;5057725;28;20064;-65
2023/09/29 05:04:06;;;;;;;8.35;3.45;;;;;;;17.68;100.00;101210.03;5057405;28;20040;-63
2023/09/29 05:06:54;;;;;;;8.57;3.63;;;;;;;17.68;100.00;101189.94;5071415;28;20066;-64
2023/09/29 05:09:42;;;;;;;8.90;3.65;;;;;;;17.68;100.00;101193.50;5065487;28;20414;-65
2023/09/29 05:12:30;;;;;;;5.25;3.00;;;;;;;17.68;100.00;101199.00;5058368;28;20047;-64
2023/09/29 05:15:18;;;;;;;6.57;3.30;;;;;;;17.68;100.00;101204.53;5072465;28;20178;-66
2023/09/29 05:18:06;;;;;;;10.43;3.25;;;;;;;17.71;100.00;101194.81;5056713;28;20049;-64
2023/09/29 05:20:55;;;;;;;6.20;3.20;;;;;;;17.73;100.00;101189.03;5045497;28;20090;-66
2023/09/29 05:23:42;;;;;;;7.90;3.72;;;;;;;17.75;100.00;101193.09;5070238;28;20045;-66
2023/09/29 05:26:31;;;;;;;8.00;3.63;;;;;;;17.77;100.00;101188.06;5057058;28;20045;-65
2023/09/29 05:29:19;;;;;;;7.32;3.47;;;;;;;17.78;100.00;101184.22;5080419;28;20041;-65
2023/09/29 05:32:07;;;;;;;7.95;3.40;;;;;;;17.79;100.00;101177.56;5081666;28;20071;-65
2023/09/29 05:34:55;;;;;;;8.48;3.88;;;;;;;17.79;100.00;101176.75;5074161;28;20048;-66
2023/09/29 05:37:43;;;;;;;7.47;3.80;;;;;;;17.79;100.00;101183.06;5079404;28;20068;-66
2023/09/29 05:40:31;;;;;;;10.05;3.70;;;;;;;17.77;100.00;101185.31;5075646;28;20059;-64
2023/09/29 05:43:19;;;;;;;7.95;3.63;;;;;;;17.77;100.00;101174.28;5060183;28;20590;-64
2023/09/29 05:46:07;;;;;;;8.30;3.58;;;;;;;17.77;100.00;101185.31;5065055;28;20048;-65
2023/09/29 05:48:55;;;;;;;7.38;3.40;;;;;;;17.77;100.00;101182.56;5071582;28;20040;-65
2023/09/29 05:51:43;;;;;;;6.97;3.15;;;;;;;17.78;100.00;101181.44;5073828;28;20049;-64
2023/09/29 05:54:31;;;;;;;8.30;3.20;;;;;;;17.77;100.00;101181.75;5074152;28;20051;-65
2023/09/29 05:57:31;;;;;;;7.35;3.20;;;;;;;17.78;100.00;101175.94;4747196;28;10001508;-64
2023/09/29 06:00:19;;;;;;;9.18;3.45;;;;;;;17.80;100.00;101173.72;5054822;28;20453;-64
2023/09/29 06:03:08;;;;;;;7.97;3.35;;;;;;;17.80;100.00;101187.50;5070018;28;20041;-64
2023/09/29 06:05:57;;;;;;;9.65;4.00;;;;;;;17.80;100.00;101182.00;5068070;28;20508;-66
2023/09/29 06:08:45;;;;;;;13.05;3.83;;;;;;;17.83;100.00;101177.81;5038375;28;20057;-67
2023/09/29 06:11:42;;;;;;;8.45;3.30;;;;;;;17.83;100.00;101181.38;5065813;28;20044;-66
2023/09/29 06:14:32;;;;;;;9.20;3.80;;;;;;;17.83;100.00;101178.63;5076730;28;20090;-65
2023/09/29 06:17:20;;;;;;;9.05;3.70;;;;;;;17.83;100.00;101178.63;5069184;28;20063;-65
2023/09/29 06:20:08;;;;;;;7.05;3.35;;;;;;;17.84;100.00;101188.50;5069019;28;20153;-65
2023/09/29 06:22:56;;;;;;;8.45;3.63;;;;;;;17.85;100.00;101190.16;5069056;28;20178;-62
2023/09/29 06:25:44;;;;;;;8.68;3.50;;;;;;;17.87;100.00;101185.16;5059580;28;20454;-63
2023/09/29 06:28:32;;;;;;;9.43;3.38;;;;;;;17.87;100.00;101185.16;5069698;28;20527;-65
2023/09/29 06:31:21;;;;;;;9.30;3.90;;;;;;;17.90;100.00;101188.41;5059481;28;20131;-63
2023/09/29 06:34:09;;;;;;;8.25;3.67;;;;;;;17.91;100.00;101193.59;5081317;28;20518;-64
2023/09/29 06:36:57;;;;;;;8.25;3.67;;;;;;;17.92;100.00;101192.50;5049072;28;20075;-64
2023/09/29 06:39:45;;;;;;;7.80;3.15;;;;;;;17.93;100.00;101199.63;5042544;28;20492;-64
2023/09/29 06:42:33;;;;;;;6.95;3.17;;;;;;;17.96;100.00;101200.94;5074631;28;20132;-64
2023/09/29 06:45:21;;;;;;;8.52;3.42;;;;;;;17.96;100.00;101198.19;5074492;28;20452;-65
2023/09/29 06:48:19;;;;;;;8.25;3.38;;;;;;;17.96;100.00;101204.53;5060813;28;20059;-64
2023/09/29 06:51:08;;;;;;;8.15;3.22;;;;;;;17.98;100.00;101206.97;5060047;28;20044;-64
2023/09/29 06:53:56;;;;;;;21.38;4.63;;;;;;;17.98;100.00;101204.22;5072863;28;20048;-63
2023/09/29 06:56:46;;;;;;;7.50;3.80;;;;;;;18.02;100.00;101197.78;5058604;28;20083;-65
2023/09/29 06:59:34;;;;;;;10.00;3.72;;;;;;;18.04;100.00;101208.50;5045152;28;20041;-65
2023/09/29 07:02:22;;;;;;;8.90;3.75;;;;;;;18.04;100.00;101208.50;5079631;28;20045;-65
2023/09/29 07:05:10;;;;;;;8.43;3.25;;;;;;;18.04;100.00;101211.28;5045705;28;20048;-65
2023/09/29 07:07:58;;;;;;;7.78;3.10;;;;;;;18.03;100.00;101215.13;5070335;28;20079;-65
2023/09/29 07:10:46;;;;;;;6.80;3.17;;;;;;;18.04;100.00;101205.75;5077425;28;20044;-64
2023/09/29 07:13:34;;;;;;;6.72;3.05;;;;;;;18.06;100.00;101211.75;5060062;28;20045;-64
2023/09/29 07:16:22;;;;;;;6.97;3.20;;;;;;;18.06;100.00;101209.00;5057892;28;20194;-64
2023/09/29 07:19:14;;;;;;;5.93;2.80;;;;;;;18.08;100.00;101204.00;5068622;28;20071;-63
2023/09/29 07:22:02;;;;;;;5.70;3.15;;;;;;;18.09;100.00;101208.41;5079967;28;20093;-64
2023/09/29 07:24:50;;;;;;;6.97;3.17;;;;;;;18.11;100.00;101206.13;5059217;28;20087;-63
2023/09/29 07:27:39;;;;;;;8.23;3.00;;;;;;;18.14;100.00;101204.72;5071599;28;20525;-63
2023/09/29 07:30:27;;;;;;;6.50;3.30;;;;;;;18.16;100.00;101214.31;5073621;28;20123;-62
2023/09/29 07:33:15;;;;;;;9.15;3.60;;;;;;;18.18;100.00;101211.22;5077732;28;20051;-64
2023/09/29 07:36:05;;;;;;;6.68;3.28;;;;;;;18.20;100.00;101215.31;5064495;28;20040;-63
2023/09/29 07:38:53;;;;;;;6.80;3.00;;;;;;;18.22;100.00;101224.09;5080495;28;20041;-64
2023/09/29 07:41:42;;;;;;;8.32;3.53;;;;;;;18.24;100.00;101224.59;5074690;28;20113;-65
2023/09/29 07:44:31;;;;;;;8.80;3.50;;;;;;;18.29;100.00;101221.72;5072525;28;20404;-64
2023/09/29 07:47:20;;;;;;;18.38;6.28;;;;;;;18.33;100.00;101219.19;5072545;28;20036;-65
2023/09/29 07:50:08;;;;;;;15.90;5.65;;;;;;;18.37;100.00;101217.41;5072400;28;20181;-65
2023/09/29 07:52:56;;;;;;;8.18;3.72;;;;;;;18.43;100.00;101212.59;5067227;28;20053;-65
2023/09/29 07:55:44;;;;;;;10.82;3.95;;;;;;;18.46;100.00;101217.50;5057526;28;20045;-63
2023/09/29 07:58:32;;;;;;;8.00;3.53;;;;;;;18.49;100.00;101216.84;5071708;28;20066;-65
2023/09/29 08:01:20;;;;;;;8.05;3.47;;;;;;;18.52;100.00;101227.28;5052886;28;20041;-65
2023/09/29 08:04:09;;;;;;;8.27;3.45;;;;;;;18.57;100.00;101234.63;5052743;28;20128;-65
2023/09/29 08:06:59;;;;;;;6.43;3.70;;;;;;;18.60;100.00;101226.53;5066002;28;20079;-64
2023/09/29 08:09:48;;;;;;;8.63;3.92;;;;;;;18.65;100.00;101226.41;5069068;28;20049;-65
2023/09/29 08:12:36;;;;;;;12.43;5.13;;;;;;;18.68;100.00;101225.78;5058524;28;20052;-64
2023/09/29 08:15:24;;;;;;;32.00;9.98;;;;;;;18.71;100.00;101229.84;5074842;28;20103;-63
2023/09/29 08:18:12;;;;;;;11.50;5.38;;;;;;;18.77;100.00;101225.06;5060335;28;20052;-64
2023/09/29 08:21:01;;;;;;;19.02;6.63;;;;;;;18.81;100.00;101231.59;5056325;28;20059;-65
2023/09/29 08:23:49;;;;;;;25.67;8.93;;;;;;;18.85;100.00;101232.59;5071867;28;20062;-62
2023/09/29 08:26:38;;;;;;;29.30;10.18;;;;;;;18.92;100.00;101238.50;5057351;28;20041;-63
2023/09/29 08:29:26;;;;;;;28.95;9.88;;;;;;;19.00;100.00;101236.91;5072054;28;20037;-65
2023/09/29 08:32:14;;;;;;;13.27;4.72;;;;;;;19.06;100.00;101236.47;5057882;28;20044;-64
2023/09/29 08:35:03;;;;;;;8.88;4.00;;;;;;;19.10;100.00;101248.53;5070574;28;20098;-65
2023/09/29 08:37:51;;;;;;;13.30;4.97;;;;;;;19.11;100.00;101255.69;5073673;28;20130;-65
2023/09/29 08:40:39;;;;;;;15.95;4.80;;;;;;;19.14;100.00;101260.56;5072902;28;20044;-64
2023/09/29 08:43:29;;;;;;;19.45;6.22;;;;;;;19.15;100.00;101261.41;5037652;28;20056;-64
2023/09/29 08:46:18;;;;;;;16.25;5.95;;;;;;;19.19;100.00;101267.91;5052290;28;20544;-65
2023/09/29 08:49:08;;;;;;;13.20;4.68;;;;;;;19.21;100.00;101260.13;5051499;28;20539;-65
2023/09/29 08:51:57;;;;;;;13.50;5.13;;;;;;;19.24;100.00;101269.72;5043621;28;20120;-65
2023/09/29 08:54:45;;;;;;;9.85;3.80;;;;;;;19.26;100.00;101268.28;5072369;28;20079;-65
2023/09/29 08:57:34;;;;;;;26.73;8.63;;;;;;;19.28;100.00;101270.72;5074567;28;20075;-65
2023/09/29 09:00:23;;;;;;;23.50;7.70;;;;;;;19.30;100.00;101279.53;5022736;28;20118;-65
2023/09/29 09:03:11;;;;;;;10.25;4.00;;;;;;;19.35;100.00;101284.91;5065498;28;20056;-64
2023/09/29 09:06:00;;;;;;;13.20;4.97;;;;;;;19.36;100.00;101283.78;5072462;28;20412;-65
2023/09/29 09:08:49;;;;;;;13.13;4.97;;;;;;;19.34;100.00;101281.34;5055598;28;20256;-65
2023/09/29 09:11:42;;;;;;;14.90;5.45;;;;;;;19.35;100.00;101282.16;5056456;28;20099;-64
2023/09/29 09:14:40;;;;;;;12.82;4.60;;;;;;;19.39;100.00;101288.69;5070430;28;20576;-66
2023/09/29 09:17:29;;;;;;;11.27;4.03;;;;;;;19.44;100.00;101287.75;5043223;28;20584;-66
2023/09/29 09:20:17;;;;;;;13.68;5.47;;;;;;;19.47;100.00;101290.69;5036545;28;20520;-67
2023/09/29 09:23:05;;;;;;;22.33;7.00;;;;;;;19.50;100.00;101292.78;5048681;28;20045;-66
2023/09/29 09:25:54;;;;;;;15.13;5.35;;;;;;;19.53;100.00;101294.09;5047155;28;20456;-65
2023/09/29 09:28:42;;;;;;;12.13;4.22;;;;;;;19.54;100.00;101293.81;5035864;28;20160;-66
2023/09/29 09:31:42;;;;;;;8.98;4.15;;;;;;;19.56;100.00;101299.84;5021878;28;20049;-65
2023/09/29 09:34:36;;;;;;;10.93;3.90;;;;;;;19.55;100.00;101303.75;5026777;28;20045;-66
2023/09/29 09:37:29;;;;;;;14.32;5.28;;;;;;;19.55;100.00;101302.91;5017377;28;20684;-64
2023/09/29 09:40:18;;;;;;;9.18;4.05;;;;;;;19.55;100.00;101306.50;5007846;28;20042;-65
2023/09/29 09:43:07;;;;;;;14.98;5.70;;;;;;;19.56;100.00;101321.94;5027314;28;20045;-64
2023/09/29 09:46:12;;;;;;;10.23;3.95;;;;;;;19.55;100.00;101325.84;5033988;28;20046;-64
2023/09/29 09:49:09;;;;;;;8.57;4.07;;;;;;;19.48;100.00;101331.03;5028189;28;20462;-65
2023/09/29 09:52:05;;;;;;;9.90;3.85;;;;;;;19.39;100.00;101343.16;5018843;28;20123;-65
2023/09/29 09:54:57;;;;;;;9.25;3.63;;;;;;;19.31;100.00;101331.72;5032218;28;20132;-64
2023/09/29 09:57:47;;;;;;;8.85;3.40;;;;;;;19.26;100.00;101345.63;5031540;28;20045;-64
2023/09/29 10:00:35;;;;;;;10.55;4.28;;;;;;;19.22;100.00;101344.66;5037409;28;20186;-65
2023/09/29 10:03:27;;;;;;;8.65;3.55;;;;;;;19.19;100.00;101350.78;5051871;28;20441;-64
2023/09/29 10:06:15;;;;;;;10.32;3.88;;;;;;;19.18;100.00;101345.59;5032701;28;20452;-63
2023/09/29 10:09:09;;;;;;;9.45;4.22;;;;;;;19.15;100.00;101344.28;5031110;28;20053;-65
2023/09/29 10:12:01;;;;;;;8.40;4.28;;;;;;;19.19;100.00;101344.44;5038296;28;20130;-65
2023/09/29 10:14:49;;;;;;;11.70;4.57;;;;;;;19.23;100.00;101345.47;5045898;28;20115;-65
2023/09/29 10:17:40;;;;;;;12.55;4.78;;;;;;;19.24;100.00;101347.09;5062368;28;20131;-65
2023/09/29 10:20:32;;;;;;;10.10;4.28;;;;;;;19.24;100.00;101347.09;5071511;28;20182;-65
2023/09/29 10:23:21;;;;;;;11.50;4.72;;;;;;;19.24;100.00;101341.56;5059763;28;20443;-65
2023/09/29 10:26:10;;;;;;;10.48;4.22;;;;;;;19.24;100.00;101347.09;5060130;28;20040;-66
2023/09/29 10:29:01;;;;;;;11.57;5.18;;;;;;;19.27;100.00;101340.94;5062083;28;20041;-64
2023/09/29 10:31:49;;;;;;;32.72;19.33;;;;;;;19.29;100.00;101349.72;5075383;28;20051;-65
2023/09/29 10:34:38;;;;;;;83.35;49.22;;;;;;;19.31;100.00;101350.22;5072195;28;20408;-64
2023/09/29 10:37:36;;;;;;;95.57;56.75;;;;;;;19.34;100.00;101341.31;5074843;28;20068;-64
2023/09/29 10:40:31;;;;;;;159.40;95.50;;;;;;;19.35;100.00;101348.47;5080299;28;20133;-65
2023/09/29 10:43:23;;;;;;;56.78;35.05;;;;;;;19.36;100.00;101355.63;5060564;28;20041;-64
2023/09/29 10:46:13;;;;;;;96.38;53.95;;;;;;;19.39;100.00;101355.00;5058233;28;20055;-64
2023/09/29 10:49:01;;;;;;;116.82;64.03;;;;;;;19.42;100.00;101365.44;5049882;28;20460;-65
2023/09/29 10:51:51;;;;;;;74.15;47.80;;;;;;;19.44;100.00;101363.16;5054306;28;20051;-65
2023/09/29 10:54:43;;;;;;;63.47;37.78;;;;;;;19.46;100.00;101369.19;5058768;28;20490;-65
2023/09/29 10:57:32;;;;;;;159.32;86.60;;;;;;;19.47;100.00;101364.50;5054309;28;20486;-65
2023/09/29 11:00:21;;;;;;;155.73;93.47;;;;;;;19.46;100.00;101371.97;5054348;28;20049;-65
2023/09/29 11:03:12;;;;;;;202.70;120.32;;;;;;;19.47;100.00;101379.13;5061580;28;20050;-65
2023/09/29 11:06:08;;;;;;;153.48;87.57;;;;;;;19.48;100.00;101385.47;5056607;28;20048;-65
2023/09/29 11:08:58;;;;;;;161.48;97.80;;;;;;;19.47;100.00;101386.59;5073326;28;20125;-65
2023/09/29 11:11:46;;;;;;;222.40;131.27;;;;;;;19.45;100.00;101392.44;5048441;28;20056;-66
2023/09/29 11:14:38;;;;;;;41.90;24.88;;;;;;;19.46;100.00;101391.31;5071543;28;20056;-65
2023/09/29 11:17:27;;;;;;;22.35;13.27;;;;;;;19.47;100.00;101401.22;5070771;28;20466;-65
2023/09/29 11:20:20;;;;;;;54.28;32.53;;;;;;;19.50;100.00;101388.72;5072368;28;20065;-65
2023/09/29 11:23:11;;;;;;;55.83;32.70;;;;;;;19.59;100.00;101386.84;5074045;28;20488;-65
2023/09/29 11:26:06;;;;;;;153.85;90.95;;;;;;;19.65;100.00;101384.75;5087272;28;20097;-65
2023/09/29 11:28:54;;;;;;;228.48;137.32;;;;;;;19.74;100.00;101386.47;5073209;28;20134;-64
2023/09/29 11:31:43;;;;;;;76.80;45.63;;;;;;;19.83;100.00;101388.47;5068679;28;20560;-64
2023/09/29 11:34:31;;;;;;;39.20;21.73;;;;;;;19.89;100.00;101390.81;5058734;28;20040;-64
2023/09/29 11:37:21;;;;;;;213.15;124.80;;;;;;;19.93;100.00;101396.50;5072214;28;20055;-64
2023/09/29 11:40:12;;;;;;;52.78;31.65;;;;;;;19.95;100.00;101395.06;5073571;28;20403;-64
2023/09/29 11:43:00;;;;;;;282.08;169.63;;;;;;;20.00;100.00;101394.91;5058859;28;20798;-64
2023/09/29 11:45:48;;;;;;;98.90;60.75;;;;;;;20.03;100.00;101390.69;5053274;28;20389;-65
2023/09/29 11:48:36;;;;;;;128.07;78.15;;;;;;;20.09;100.00;101400.50;5058146;28;20044;-65
2023/09/29 11:51:25;;;;;;;128.15;78.43;;;;;;;20.16;100.00;101400.84;5072194;28;20041;-65
2023/09/29 11:54:14;;;;;;;181.48;106.03;;;;;;;20.20;100.00;101395.47;5070337;28;20091;-64
2023/09/29 11:57:03;;;;;;;49.15;30.02;;;;;;;20.22;100.00;101409.81;5043034;28;20047;-64
2023/09/29 11:59:52;;;;;;;136.27;77.70;;;;;;;20.25;100.00;101402.81;5071534;28;20110;-65
2023/09/29 12:02:42;;;;;;;7.90;3.40;;;;;;;20.28;100.00;101411.31;5073221;28;20102;-64
2023/09/29 12:05:30;;;;;;;12.50;3.63;;;;;;;20.30;100.00;101409.06;5042738;28;20103;-65
2023/09/29 12:08:19;;;;;;;8.32;3.60;;;;;;;20.29;100.00;101401.06;5071484;28;20045;-66
2023/09/29 12:11:07;;;;;;;7.97;3.35;;;;;;;20.26;100.00;101404.47;5063075;28;20190;-65
2023/09/29 12:13:55;;;;;;;11.40;5.93;;;;;;;20.22;100.00;101413.41;5072952;28;20045;-65
2023/09/29 12:16:44;;;;;;;28.50;15.65;;;;;;;20.20;100.00;101429.53;5071427;28;20592;-65
2023/09/29 12:19:32;;;;;;;6.50;3.53;;;;;;;20.20;100.00;101439.75;5070185;28;20134;-65
2023/09/29 12:22:20;;;;;;;5.95;3.05;;;;;;;20.17;100.00;101432.91;5071822;28;20040;-64
2023/09/29 12:25:09;;;;;;;5.53;3.10;;;;;;;20.14;100.00;101450.16;5086707;28;20060;-64
2023/09/29 12:27:57;;;;;;;6.75;3.40;;;;;;;20.10;100.00;101451.91;5070157;28;20102;-64
2023/09/29 12:30:45;;;;;;;19.42;11.02;;;;;;;20.06;100.00;101455.63;5072183;28;20068;-64
2023/09/29 12:33:33;;;;;;;8.20;3.70;;;;;;;20.01;100.00;101489.78;5073463;28;20040;-65
2023/09/29 12:36:22;;;;;;;8.60;3.50;;;;;;;19.82;100.00;101490.00;5052484;28;20041;-65
2023/09/29 12:39:12;;;;;;;4.50;2.53;;;;;;;19.64;100.00;101499.25;5052221;28;20052;-65
2023/09/29 12:42:00;;;;;;;5.95;2.65;;;;;;;19.54;100.00;101506.63;5051565;28;20140;-65
2023/09/29 12:44:49;;;;;;;3.67;2.25;;;;;;;19.47;100.00;101522.84;5085600;28;20044;-65
2023/09/29 12:47:37;;;;;;;4.75;2.20;;;;;;;19.41;100.00;101526.88;5063968;28;20045;-65
2023/09/29 12:50:25;;;;;;;5.45;2.50;;;;;;;19.31;100.00;101535.34;5038179;28;20045;-64